createdAt,value
2023-02-22T00:01:20.845Z,12.99
2023-02-22T00:03:54.034Z,13.39
2023-02-22T00:06:26.629Z,13.62
2023-02-22T00:08:57.253Z,13.79
2023-02-22T00:11:26.947Z,13.58
2023-02-22T00:13:59.664Z,14.24
2023-02-22T00:16:29.673Z,13.95
2023-02-22T00:18:59.355Z,14.24
2023-02-22T00:21:29.136Z,14.55
2023-02-22T00:23:58.836Z,14.87
2023-02-22T00:26:29.367Z,14.75
2023-02-22T00:28:59.180Z,15.04
2023-02-22T00:31:28.944Z,14.76
2023-02-22T00:33:58.707Z,14.89
2023-02-22T00:36:28.357Z,15.06
2023-02-22T00:38:58.129Z,15.17
2023-02-22T00:41:27.850Z,15.14
2023-02-22T00:43:57.652Z,15.77
2023-02-22T00:46:27.364Z,15.74
2023-02-22T00:48:56.997Z,15.53
2023-02-22T00:51:28.922Z,15.55
2023-02-22T00:53:58.640Z,15.68
2023-02-22T00:56:28.337Z,15.69
2023-02-22T00:58:58.308Z,15.91
2023-02-22T01:01:28.080Z,16.23
2023-02-22T01:03:58.027Z,16.09
2023-02-22T01:06:27.991Z,16.07
2023-02-22T01:08:57.611Z,16.33
2023-02-22T01:11:27.515Z,16.21
2023-02-22T01:13:58.265Z,16.34
2023-02-22T01:16:28.303Z,16.30
2023-02-22T01:18:58.039Z,16.78
2023-02-22T01:21:27.697Z,16.47
2023-02-22T01:23:57.379Z,16.30
2023-02-22T01:26:27.052Z,16.49
2023-02-22T01:28:56.644Z,16.75
2023-02-22T01:31:26.283Z,16.33
2023-02-22T01:33:56.075Z,16.78
2023-02-22T01:36:25.671Z,17.04
2023-02-22T01:38:55.379Z,16.68
2023-02-22T01:41:25.179Z,17.12
2023-02-22T01:43:54.957Z,16.77
2023-02-22T01:46:29.112Z,17.06
2023-02-22T01:49:07.558Z,16.88
2023-02-22T01:51:39.651Z,17.02
2023-02-22T01:54:23.818Z,17.25
2023-02-22T01:57:14.629Z,16.88
2023-02-22T01:59:46.684Z,16.90
2023-02-22T02:02:16.390Z,17.18
2023-02-22T02:04:46.010Z,17.09
2023-02-22T02:07:16.722Z,17.24
2023-02-22T02:09:55.548Z,17.06
2023-02-22T02:12:25.308Z,16.52
2023-02-22T02:14:55.061Z,16.82
2023-02-22T02:17:24.946Z,16.71
2023-02-22T02:19:57.454Z,17.04
2023-02-22T02:22:38.434Z,16.79
2023-02-22T02:25:11.043Z,17.11
2023-02-22T02:28:17.387Z,17.11
2023-02-22T02:31:14.736Z,16.61
2023-02-22T02:34:01.685Z,16.88
2023-02-22T02:36:43.875Z,16.46
2023-02-22T02:40:02.236Z,17.03
2023-02-22T02:42:36.934Z,17.43
2023-02-22T02:45:13.635Z,17.03
2023-02-22T02:47:48.377Z,17.33
2023-02-22T02:50:33.037Z,17.55
2023-02-22T02:53:04.675Z,17.39
2023-02-22T02:55:34.382Z,17.07
2023-02-22T02:58:06.371Z,17.62
2023-02-22T03:00:41.797Z,17.54
2023-02-22T03:03:26.620Z,17.58
2023-02-22T03:06:18.238Z,17.44
2023-02-22T03:08:51.932Z,17.34
2023-02-22T03:11:29.117Z,17.46
2023-02-22T03:14:17.002Z,17.03
2023-02-22T03:16:51.901Z,17.60
2023-02-22T03:19:39.806Z,17.28
2023-02-22T03:22:27.474Z,16.49
2023-02-22T03:25:08.661Z,17.28
2023-02-22T03:27:46.336Z,16.74
2023-02-22T03:30:32.564Z,16.88
2023-02-22T03:33:25.591Z,16.76
2023-02-22T03:36:01.351Z,16.40
2023-02-22T03:38:32.078Z,16.93
2023-02-22T03:41:03.208Z,17.33
2023-02-22T03:43:36.828Z,17.52
2023-02-22T03:46:06.681Z,17.98
2023-02-22T03:49:07.736Z,17.53
2023-02-22T03:51:37.466Z,17.67
2023-02-22T03:54:07.292Z,17.86
2023-02-22T03:56:42.969Z,17.73
2023-02-22T03:59:13.002Z,18.30
2023-02-22T04:01:42.774Z,17.92
2023-02-22T04:04:12.619Z,17.93
2023-02-22T04:06:42.363Z,18.38
2023-02-22T04:09:12.099Z,17.90
2023-02-22T04:11:41.814Z,17.69
2023-02-22T04:14:11.559Z,17.16
2023-02-22T04:16:41.461Z,16.63
2023-02-22T04:19:11.276Z,16.64
2023-02-22T04:21:40.986Z,16.70
2023-02-22T04:24:10.654Z,16.71
2023-02-22T04:26:40.396Z,16.60
2023-02-22T04:29:10.102Z,17.39
2023-02-22T04:31:39.794Z,17.41
2023-02-22T04:34:09.518Z,16.63
2023-02-22T04:36:39.219Z,16.89
2023-02-22T04:39:08.841Z,17.20
2023-02-22T04:41:38.466Z,16.90
2023-02-22T04:44:08.214Z,17.54
2023-02-22T04:46:38.034Z,18.01
2023-02-22T04:49:07.795Z,17.79
2023-02-22T04:51:38.413Z,18.02
2023-02-22T04:54:08.149Z,18.04
2023-02-22T04:56:37.960Z,18.03
2023-02-22T04:59:07.756Z,17.83
2023-02-22T05:01:37.938Z,17.67
2023-02-22T05:04:08.698Z,17.79
2023-02-22T05:06:38.360Z,17.39
2023-02-22T05:09:08.060Z,17.72
2023-02-22T05:11:37.721Z,17.36
2023-02-22T05:14:07.476Z,16.82
2023-02-22T05:16:37.554Z,16.97
2023-02-22T05:19:07.262Z,17.15
2023-02-22T05:21:36.977Z,16.83
2023-02-22T05:24:07.553Z,16.83
2023-02-22T05:26:37.309Z,16.93
2023-02-22T05:29:07.312Z,17.07
2023-02-22T05:31:37.060Z,17.29
2023-02-22T05:34:06.842Z,17.06
2023-02-22T05:36:36.567Z,17.16
2023-02-22T05:39:07.104Z,17.19
2023-02-22T05:41:36.788Z,17.28
2023-02-22T05:44:06.780Z,17.13
2023-02-22T05:46:36.538Z,17.21
2023-02-22T05:49:06.493Z,16.88
2023-02-22T05:51:36.326Z,16.88
2023-02-22T05:54:06.030Z,16.97
2023-02-22T05:56:35.753Z,16.46
2023-02-22T05:59:05.476Z,16.63
2023-02-22T06:01:35.119Z,17.44
2023-02-22T06:04:04.842Z,17.20
2023-02-22T06:06:34.578Z,17.27
2023-02-22T06:09:04.347Z,16.83
2023-02-22T06:11:34.016Z,17.07
2023-02-22T06:14:03.777Z,16.89
2023-02-22T06:16:33.495Z,16.62
2023-02-22T06:19:03.470Z,16.30
2023-02-22T06:21:33.042Z,15.71
2023-02-22T06:24:05.682Z,16.04
2023-02-22T06:26:35.276Z,15.73
2023-02-22T06:29:07.447Z,15.97
2023-02-22T06:31:37.041Z,16.01
2023-02-22T06:34:06.847Z,15.78
2023-02-22T06:36:36.476Z,16.12
2023-02-22T06:39:06.133Z,15.76
2023-02-22T06:41:38.903Z,15.88
2023-02-22T06:44:08.533Z,15.83
2023-02-22T06:46:38.549Z,16.14
2023-02-22T06:49:08.238Z,15.82
2023-02-22T06:51:41.915Z,15.19
2023-02-22T06:54:11.616Z,15.58
2023-02-22T06:56:41.230Z,15.90
2023-02-22T06:59:10.870Z,15.42
2023-02-22T07:01:43.334Z,15.55
2023-02-22T07:04:13.910Z,16.10
2023-02-22T07:06:48.533Z,15.20
2023-02-22T07:09:18.886Z,15.13
2023-02-22T07:11:48.514Z,14.76
2023-02-22T07:14:21.343Z,15.61
2023-02-22T07:16:50.956Z,14.92
2023-02-22T07:19:20.633Z,15.15
2023-02-22T07:21:50.356Z,15.57
2023-02-22T07:24:19.916Z,15.46
2023-02-22T07:26:49.482Z,14.82
2023-02-22T07:29:19.122Z,14.92
2023-02-22T07:31:48.811Z,15.45
2023-02-22T07:34:18.484Z,15.55
2023-02-22T07:36:48.168Z,15.17
2023-02-22T07:39:17.753Z,15.63
2023-02-22T07:41:47.534Z,15.39
2023-02-22T07:44:17.173Z,15.14
2023-02-22T07:46:50.483Z,15.12
2023-02-22T07:49:20.251Z,14.97
2023-02-22T07:51:49.897Z,14.71
2023-02-22T07:54:19.492Z,14.86
2023-02-22T07:56:51.962Z,15.39
2023-02-22T07:59:23.233Z,15.03
2023-02-22T08:01:53.023Z,15.39
2023-02-22T08:04:22.646Z,14.87
2023-02-22T08:06:52.395Z,15.07
2023-02-22T08:09:22.124Z,15.33
2023-02-22T08:11:51.883Z,14.87
2023-02-22T08:14:21.582Z,14.96
2023-02-22T08:16:51.275Z,15.04
2023-02-22T08:19:20.905Z,14.83
2023-02-22T08:21:50.536Z,14.55
2023-02-22T08:24:20.106Z,14.95
2023-02-22T08:26:49.895Z,14.91
2023-02-22T08:29:19.594Z,14.83
2023-02-22T08:31:55.667Z,14.70
2023-02-22T08:34:26.341Z,15.21
2023-02-22T08:36:56.268Z,14.64
2023-02-22T08:39:26.002Z,14.97
2023-02-22T08:41:55.587Z,14.78
2023-02-22T08:44:25.805Z,14.78
2023-02-22T08:46:55.439Z,14.72
2023-02-22T08:49:25.073Z,15.03
2023-02-22T08:51:54.684Z,14.42
2023-02-22T08:54:24.421Z,14.74
2023-02-22T08:56:54.078Z,14.86
2023-02-22T08:59:23.770Z,14.98
2023-02-22T09:01:53.508Z,14.96
2023-02-22T09:04:23.258Z,14.62
2023-02-22T09:06:53.431Z,14.87
2023-02-22T09:09:23.295Z,14.96
2023-02-22T09:11:53.258Z,14.59
2023-02-22T09:14:23.094Z,14.91
2023-02-22T09:16:52.804Z,15.15
2023-02-22T09:19:22.481Z,14.62
2023-02-22T09:21:58.556Z,14.76
2023-02-22T09:24:28.318Z,14.60
2023-02-22T09:26:57.975Z,14.77
2023-02-22T09:29:28.390Z,14.55
2023-02-22T09:31:58.418Z,14.64
2023-02-22T09:34:36.865Z,15.05
2023-02-22T09:37:10.233Z,14.48
2023-02-22T09:39:41.006Z,14.78
2023-02-22T09:42:29.177Z,14.73
2023-02-22T09:45:16.325Z,14.70
2023-02-22T09:47:59.748Z,14.78
2023-02-22T09:50:49.835Z,14.83
2023-02-22T09:53:37.647Z,14.64
2023-02-22T09:56:19.449Z,14.39
2023-02-22T09:58:51.560Z,14.89
2023-02-22T10:01:47.423Z,14.69
2023-02-22T10:04:32.568Z,14.76
2023-02-22T10:07:38.622Z,14.98
2023-02-22T10:10:08.637Z,14.81
2023-02-22T10:13:03.380Z,14.84
2023-02-22T10:15:50.861Z,14.78
2023-02-22T10:18:29.992Z,14.86
2023-02-22T10:21:12.323Z,14.74
2023-02-22T10:23:55.154Z,15.05
2023-02-22T10:26:37.860Z,15.10
2023-02-22T10:29:23.693Z,14.87
2023-02-22T10:31:58.936Z,14.97
2023-02-22T10:34:30.134Z,15.14
2023-02-22T10:37:27.017Z,14.71
2023-02-22T10:40:01.767Z,15.21
2023-02-22T10:42:31.437Z,14.89
2023-02-22T10:45:01.319Z,14.97
2023-02-22T10:47:30.957Z,14.89
2023-02-22T10:50:02.029Z,14.60
2023-02-22T10:52:35.393Z,14.82
2023-02-22T10:55:14.978Z,15.09
2023-02-22T10:57:48.695Z,15.17
2023-02-22T11:00:32.057Z,15.09
2023-02-22T11:03:03.059Z,15.05
2023-02-22T11:05:38.412Z,15.33
2023-02-22T11:08:28.081Z,15.48
2023-02-22T11:11:18.388Z,15.50
2023-02-22T11:13:48.869Z,15.92
2023-02-22T11:16:31.413Z,15.45
2023-02-22T11:19:34.289Z,15.43
2023-02-22T11:22:16.350Z,15.59
2023-02-22T11:24:59.638Z,15.49
2023-02-22T11:27:34.137Z,15.84
2023-02-22T11:30:28.284Z,15.67
2023-02-22T11:33:02.937Z,16.01
2023-02-22T11:35:36.855Z,15.55
2023-02-22T11:38:24.046Z,15.98
2023-02-22T11:41:09.529Z,15.50
2023-02-22T11:43:39.227Z,15.51
2023-02-22T11:46:19.104Z,15.49
2023-02-22T11:49:00.460Z,15.48
2023-02-22T11:51:53.931Z,15.72
2023-02-22T11:54:42.347Z,15.26
2023-02-22T11:57:30.193Z,15.93
2023-02-22T12:00:26.356Z,15.72
2023-02-22T12:03:32.154Z,15.75
2023-02-22T12:06:17.436Z,15.95
2023-02-22T12:09:09.630Z,15.83
2023-02-22T12:12:18.610Z,15.80
2023-02-22T12:14:57.221Z,15.87
2023-02-22T12:18:00.269Z,15.92
2023-02-22T12:20:47.281Z,15.72
2023-02-22T12:23:33.183Z,15.99
2023-02-22T12:26:21.892Z,15.89
2023-02-22T12:29:19.546Z,16.09
2023-02-22T12:31:52.633Z,16.27
2023-02-22T12:34:28.783Z,15.98
2023-02-22T12:37:19.010Z,16.04
2023-02-22T12:40:10.103Z,15.58
2023-02-22T12:42:57.803Z,15.85
2023-02-22T12:45:36.360Z,16.00
2023-02-22T12:48:23.098Z,15.57
2023-02-22T12:50:56.666Z,15.63
2023-02-22T12:53:45.332Z,16.32
2023-02-22T12:56:23.978Z,15.91
2023-02-22T12:59:09.915Z,16.11
2023-02-22T13:01:44.424Z,15.88
2023-02-22T13:04:20.833Z,15.93
2023-02-22T13:07:09.402Z,16.13
2023-02-22T13:09:53.913Z,15.86
2023-02-22T13:12:42.485Z,16.07
2023-02-22T13:15:21.718Z,15.57
2023-02-22T13:18:17.239Z,15.62
2023-02-22T13:21:02.034Z,16.00
2023-02-22T13:23:50.317Z,16.08
2023-02-22T13:27:00.975Z,16.17
2023-02-22T13:29:36.884Z,15.86
2023-02-22T13:32:09.576Z,16.26
2023-02-22T13:35:17.828Z,15.72
2023-02-22T13:38:37.610Z,15.76
2023-02-22T13:41:28.665Z,15.75
2023-02-22T13:44:15.122Z,15.70
2023-02-22T13:47:06.050Z,15.69
2023-02-22T13:50:01.493Z,16.05
2023-02-22T13:52:33.231Z,16.14
2023-02-22T13:55:04.684Z,15.79
2023-02-22T13:57:53.196Z,15.83
2023-02-22T14:00:25.182Z,16.18
2023-02-22T14:03:05.019Z,16.24
2023-02-22T14:05:43.872Z,15.77
2023-02-22T14:08:16.523Z,16.37
2023-02-22T14:11:02.316Z,15.76
2023-02-22T14:14:02.232Z,16.30
2023-02-22T14:16:32.761Z,15.97
2023-02-22T14:19:17.429Z,16.56
2023-02-22T14:22:06.994Z,15.92
2023-02-22T14:24:48.321Z,16.55
2023-02-22T14:27:19.089Z,16.66
2023-02-22T14:29:59.712Z,16.42
2023-02-22T14:32:36.806Z,16.19
2023-02-22T14:35:28.797Z,16.59
2023-02-22T14:38:03.040Z,16.19
2023-02-22T14:40:33.754Z,16.60
2023-02-22T14:43:16.883Z,16.15
2023-02-22T14:45:55.449Z,16.03
2023-02-22T14:48:44.417Z,16.57
2023-02-22T14:51:27.243Z,15.93
2023-02-22T14:54:04.106Z,16.28
2023-02-22T14:57:16.238Z,16.05
2023-02-22T15:00:21.347Z,16.07
2023-02-22T15:02:52.300Z,16.60
2023-02-22T15:05:22.363Z,16.29
2023-02-22T15:08:02.905Z,16.58
2023-02-22T15:10:38.919Z,16.23
2023-02-22T15:13:12.086Z,16.40
2023-02-22T15:15:52.285Z,16.79
2023-02-22T15:18:52.290Z,16.59
2023-02-22T15:21:23.955Z,16.58
2023-02-22T15:23:58.123Z,16.61
2023-02-22T15:26:59.049Z,16.40
2023-02-22T15:29:39.011Z,16.36
2023-02-22T15:32:36.001Z,16.86
2023-02-22T15:35:25.043Z,16.80
2023-02-22T15:38:13.570Z,16.23
2023-02-22T15:40:47.361Z,16.84
2023-02-22T15:43:30.137Z,16.02
2023-02-22T15:46:00.085Z,16.85
2023-02-22T15:48:32.672Z,16.12
2023-02-22T15:51:08.217Z,16.12
2023-02-22T15:53:42.361Z,16.96
2023-02-22T15:56:17.477Z,16.98
2023-02-22T15:58:48.264Z,16.24
2023-02-22T16:01:20.472Z,16.40
2023-02-22T16:03:55.667Z,16.73
2023-02-22T16:06:38.512Z,16.65
2023-02-22T16:09:16.702Z,16.46
2023-02-22T16:11:47.448Z,16.27
2023-02-22T16:14:44.074Z,16.96
2023-02-22T16:17:32.344Z,17.04
2023-02-22T16:20:26.453Z,16.60
2023-02-22T16:22:59.212Z,16.31
2023-02-22T16:25:34.322Z,16.56
2023-02-22T16:28:07.782Z,17.00
2023-02-22T16:30:43.392Z,16.62
2023-02-22T16:33:18.071Z,16.21
2023-02-22T16:35:53.393Z,16.22
2023-02-22T16:38:22.969Z,16.31
2023-02-22T16:40:59.927Z,16.12
2023-02-22T16:43:34.340Z,16.94
2023-02-22T16:46:04.379Z,16.65
2023-02-22T16:48:34.796Z,16.89
2023-02-22T16:51:22.499Z,17.02
2023-02-22T16:53:52.247Z,16.35
2023-02-22T16:56:22.892Z,16.86
2023-02-22T16:58:54.363Z,16.39
2023-02-22T17:01:26.831Z,16.78
2023-02-22T17:03:56.616Z,16.14
2023-02-22T17:06:26.346Z,16.99
2023-02-22T17:08:55.947Z,16.42
2023-02-22T17:11:25.707Z,17.03
2023-02-22T17:13:55.363Z,16.94
2023-02-22T17:16:25.229Z,16.45
2023-02-22T17:18:54.965Z,16.48
2023-02-22T17:21:24.707Z,16.60
2023-02-22T17:23:54.392Z,16.89
2023-02-22T17:26:25.456Z,16.82
2023-02-22T17:28:55.144Z,16.59
2023-02-22T17:31:26.700Z,16.19
2023-02-22T17:33:56.602Z,16.52
2023-02-22T17:36:26.197Z,16.71
2023-02-22T17:38:55.955Z,17.12
2023-02-22T17:41:25.562Z,16.31
2023-02-22T17:43:55.875Z,16.92
2023-02-22T17:46:26.768Z,16.33
2023-02-22T17:48:56.515Z,16.74
2023-02-22T17:51:27.632Z,16.33
2023-02-22T17:53:57.226Z,16.66
2023-02-22T17:56:27.092Z,17.06
2023-02-22T17:58:57.226Z,16.83
2023-02-22T18:01:33.138Z,16.58
2023-02-22T18:04:03.810Z,17.01
2023-02-22T18:06:34.243Z,16.52
2023-02-22T18:09:11.609Z,16.74
2023-02-22T18:11:41.619Z,16.66
2023-02-22T18:14:13.757Z,16.50
2023-02-22T18:16:43.958Z,16.70
2023-02-22T18:19:13.709Z,16.88
2023-02-22T18:21:43.384Z,16.69
2023-02-22T18:24:13.065Z,16.79
2023-02-22T18:26:42.785Z,17.14
2023-02-22T18:29:13.803Z,16.58
2023-02-22T18:31:45.916Z,16.69
2023-02-22T18:34:17.256Z,16.84
2023-02-22T18:36:46.974Z,16.72
2023-02-22T18:39:16.633Z,17.42
2023-02-22T18:41:50.293Z,16.54
2023-02-22T18:44:20.159Z,17.01
2023-02-22T18:49:35.439Z,17.12
2023-02-22T18:52:05.162Z,16.59
2023-02-22T18:54:34.822Z,16.95
2023-02-22T18:57:04.420Z,16.82
2023-02-22T18:59:34.116Z,17.50
2023-02-22T19:02:04.170Z,17.42
2023-02-22T19:04:33.918Z,17.27
2023-02-22T19:07:03.517Z,17.71
2023-02-22T19:09:33.449Z,17.05
2023-02-22T19:12:03.046Z,16.71
2023-02-22T19:14:32.769Z,17.67
2023-02-22T19:17:04.301Z,16.65
2023-02-22T19:19:33.932Z,17.71
2023-02-22T19:22:03.625Z,17.32
2023-02-22T19:24:33.277Z,16.83
2023-02-22T19:27:03.166Z,17.66
2023-02-22T19:29:32.875Z,16.87
2023-02-22T19:32:02.537Z,17.75
2023-02-22T19:34:32.892Z,17.05
2023-02-22T19:37:02.704Z,16.89
2023-02-22T19:39:32.315Z,17.71
2023-02-22T19:42:02.260Z,17.51
2023-02-22T19:44:31.941Z,17.71
2023-02-22T19:47:01.710Z,17.17
2023-02-22T19:49:31.691Z,17.42
2023-02-22T19:52:01.422Z,17.23
2023-02-22T19:54:31.190Z,17.89
2023-02-22T19:57:00.904Z,17.49
2023-02-22T19:59:30.841Z,17.52
2023-02-22T20:02:00.544Z,17.55
2023-02-22T20:04:32.296Z,17.23
2023-02-22T20:07:02.005Z,17.03
2023-02-22T20:09:37.781Z,17.28
2023-02-22T20:12:08.024Z,17.40
2023-02-22T20:14:37.867Z,17.15
2023-02-22T20:17:09.263Z,17.34
2023-02-22T20:19:40.302Z,16.77
2023-02-22T20:22:10.117Z,16.72
2023-02-22T20:24:40.281Z,17.12
2023-02-22T20:27:10.716Z,16.79
2023-02-22T20:29:40.334Z,17.30
2023-02-22T20:32:12.010Z,17.54
2023-02-22T20:34:42.795Z,17.46
2023-02-22T20:37:12.390Z,17.63
2023-02-22T20:39:42.735Z,17.51
2023-02-22T20:42:13.172Z,17.60
2023-02-22T20:44:42.880Z,17.47
2023-02-22T20:47:12.476Z,17.74
2023-02-22T20:49:42.154Z,16.97
2023-02-22T20:52:12.119Z,17.34
2023-02-22T20:54:41.766Z,17.72
2023-02-22T20:57:11.395Z,17.42
2023-02-22T20:59:41.127Z,17.69
2023-02-22T21:02:12.189Z,17.10
2023-02-22T21:04:41.924Z,17.47
2023-02-22T21:07:11.509Z,17.41
2023-02-22T21:09:41.919Z,16.85
2023-02-22T21:12:14.985Z,17.11
2023-02-22T21:14:45.807Z,16.32
2023-02-22T21:17:15.378Z,15.93
2023-02-22T21:19:45.447Z,16.22
2023-02-22T21:22:15.945Z,15.66
2023-02-22T21:24:45.650Z,15.37
2023-02-22T21:27:15.276Z,15.52
2023-02-22T21:29:45.061Z,15.33
2023-02-22T21:32:15.482Z,15.29
2023-02-22T21:34:45.241Z,15.06
2023-02-22T21:37:21.958Z,14.94
2023-02-22T21:39:51.756Z,14.52
2023-02-22T21:42:21.421Z,14.55
2023-02-22T21:44:55.887Z,14.09
2023-02-22T21:47:25.963Z,15.00
2023-02-22T21:49:55.556Z,13.98
2023-02-22T21:52:27.189Z,13.94
2023-02-22T21:54:56.908Z,14.80
2023-02-22T21:57:27.773Z,14.76
2023-02-22T21:59:57.435Z,14.03
2023-02-22T22:02:27.220Z,14.63
2023-02-22T22:04:57.920Z,14.70
2023-02-22T22:07:27.622Z,14.73
2023-02-22T22:09:58.282Z,14.65
2023-02-22T22:12:38.775Z,14.87
2023-02-22T22:15:09.424Z,14.00
2023-02-22T22:17:39.090Z,14.15
2023-02-22T22:20:11.946Z,14.21
2023-02-22T22:22:42.991Z,14.58
2023-02-22T22:25:14.016Z,14.13
2023-02-22T22:27:43.659Z,13.90
2023-02-22T22:30:14.810Z,13.45
2023-02-22T22:32:44.843Z,14.05
2023-02-22T22:35:16.176Z,13.77
2023-02-22T22:37:48.763Z,14.12
2023-02-22T22:40:18.662Z,14.13
2023-02-22T22:42:48.740Z,13.16
2023-02-22T22:45:19.647Z,13.85
2023-02-22T22:47:49.832Z,13.58
2023-02-22T22:50:27.955Z,14.54
2023-02-22T22:52:58.388Z,14.84
2023-02-22T22:55:28.194Z,14.73
2023-02-22T22:57:57.931Z,15.48
2023-02-22T23:00:39.952Z,15.66
2023-02-22T23:03:11.095Z,15.40
2023-02-22T23:05:45.297Z,16.23
2023-02-22T23:08:14.586Z,16.09
2023-02-22T23:10:44.483Z,17.12
2023-02-22T23:13:17.160Z,16.22
2023-02-22T23:15:50.122Z,16.80
2023-02-22T23:18:22.709Z,17.11
2023-02-22T23:20:56.730Z,17.25
2023-02-22T23:23:29.334Z,16.73
2023-02-22T23:26:13.078Z,17.31
2023-02-22T23:28:43.066Z,17.12
2023-02-22T23:31:15.522Z,17.57
2023-02-22T23:33:46.091Z,16.52
2023-02-22T23:36:16.789Z,16.17
2023-02-22T23:38:46.646Z,17.04
2023-02-22T23:41:18.036Z,17.29
2023-02-22T23:43:48.033Z,17.22
2023-02-22T23:46:19.999Z,17.26
2023-02-22T23:48:54.249Z,17.46
2023-02-22T23:51:26.914Z,17.54
2023-02-22T23:53:59.404Z,17.96
2023-02-22T23:56:30.000Z,18.08
2023-02-22T23:58:59.763Z,18.13
